sensor_id;sensor_type;location;lat;lon;timestamp;temperature;humidity
14739;DHT22;7461;52.440;13.540;2022-07-23T00:00:07;18.40;99.90
14739;DHT22;7461;52.440;13.540;2022-07-23T00:02:35;18.30;99.90
14739;DHT22;7461;52.440;13.540;2022-07-23T00:05:02;18.30;99.90
14739;DHT22;7461;52.440;13.540;2022-07-23T00:07:29;18.30;99.90
14739;DHT22;7461;52.440;13.540;2022-07-23T00:09:56;18.30;99.90
14739;DHT22;7461;52.440;13.540;2022-07-23T00:12:24;18.30;99.90
14739;DHT22;7461;52.440;13.540;2022-07-23T00:14:51;18.30;99.90
14739;DHT22;7461;52.440;13.540;2022-07-23T00:17:18;18.30;99.90
14739;DHT22;7461;52.440;13.540;2022-07-23T00:19:45;18.40;99.90
14739;DHT22;7461;52.440;13.540;2022-07-23T00:22:12;18.40;99.90
14739;DHT22;7461;52.440;13.540;2022-07-23T00:24:39;18.40;99.90
14739;DHT22;7461;52.440;13.540;2022-07-23T00:27:05;18.40;99.90
14739;DHT22;7461;52.440;13.540;2022-07-23T00:29:34;18.30;99.90
14739;DHT22;7461;52.440;13.540;2022-07-23T00:32:00;18.30;99.90
14739;DHT22;7461;52.440;13.540;2022-07-23T00:34:27;18.20;99.90
14739;DHT22;7461;52.440;13.540;2022-07-23T00:36:54;18.20;99.90
14739;DHT22;7461;52.440;13.540;2022-07-23T00:39:21;18.20;99.90
14739;DHT22;7461;52.440;13.540;2022-07-23T00:41:49;18.10;99.90
14739;DHT22;7461;52.440;13.540;2022-07-23T00:44:18;18.10;99.90
14739;DHT22;7461;52.440;13.540;2022-07-23T00:46:48;18.20;99.90
14739;DHT22;7461;52.440;13.540;2022-07-23T00:49:15;18.20;99.90
14739;DHT22;7461;52.440;13.540;2022-07-23T00:51:42;18.10;99.90
14739;DHT22;7461;52.440;13.540;2022-07-23T00:54:09;18.10;99.90
14739;DHT22;7461;52.440;13.540;2022-07-23T00:56:37;18.10;99.90
14739;DHT22;7461;52.440;13.540;2022-07-23T00:59:06;18.10;99.90
14739;DHT22;7461;52.440;13.540;2022-07-23T01:01:33;18.20;99.90
14739;DHT22;7461;52.440;13.540;2022-07-23T01:04:02;18.20;99.90
14739;DHT22;7461;52.440;13.540;2022-07-23T01:06:29;18.20;99.90
14739;DHT22;7461;52.440;13.540;2022-07-23T01:08:57;18.10;99.90
14739;DHT22;7461;52.440;13.540;2022-07-23T01:11:23;18.20;99.90
14739;DHT22;7461;52.440;13.540;2022-07-23T01:13:51;18.20;99.90
14739;DHT22;7461;52.440;13.540;2022-07-23T01:16:18;18.10;99.90
14739;DHT22;7461;52.440;13.540;2022-07-23T01:18:44;18.10;99.90
14739;DHT22;7461;52.440;13.540;2022-07-23T01:21:13;18.20;99.90
14739;DHT22;7461;52.440;13.540;2022-07-23T01:23:41;18.20;99.90
14739;DHT22;7461;52.440;13.540;2022-07-23T01:26:08;18.10;99.90
14739;DHT22;7461;52.440;13.540;2022-07-23T01:28:35;18.10;99.90
14739;DHT22;7461;52.440;13.540;2022-07-23T01:31:02;18.10;99.90
14739;DHT22;7461;52.440;13.540;2022-07-23T01:33:29;18.10;99.90
14739;DHT22;7461;52.440;13.540;2022-07-23T01:35:56;18.10;99.90
14739;DHT22;7461;52.440;13.540;2022-07-23T01:38:23;18.00;99.90
14739;DHT22;7461;52.440;13.540;2022-07-23T01:40:51;18.00;99.90
14739;DHT22;7461;52.440;13.540;2022-07-23T01:43:18;18.00;99.90
14739;DHT22;7461;52.440;13.540;2022-07-23T01:45:45;18.00;99.90
14739;DHT22;7461;52.440;13.540;2022-07-23T01:48:12;18.00;99.90
14739;DHT22;7461;52.440;13.540;2022-07-23T01:50:38;17.90;99.90
14739;DHT22;7461;52.440;13.540;2022-07-23T01:53:05;17.90;99.90
14739;DHT22;7461;52.440;13.540;2022-07-23T01:55:32;17.80;99.90
14739;DHT22;7461;52.440;13.540;2022-07-23T01:58:00;17.80;99.90
14739;DHT22;7461;52.440;13.540;2022-07-23T02:00:27;17.80;99.90
14739;DHT22;7461;52.440;13.540;2022-07-23T02:02:54;17.70;99.90
14739;DHT22;7461;52.440;13.540;2022-07-23T02:05:21;17.60;99.90
14739;DHT22;7461;52.440;13.540;2022-07-23T02:07:48;17.60;99.90
14739;DHT22;7461;52.440;13.540;2022-07-23T02:10:15;17.60;99.90
14739;DHT22;7461;52.440;13.540;2022-07-23T02:12:42;17.60;99.90
14739;DHT22;7461;52.440;13.540;2022-07-23T02:15:10;17.60;99.90
14739;DHT22;7461;52.440;13.540;2022-07-23T02:17:37;17.60;99.90
14739;DHT22;7461;52.440;13.540;2022-07-23T02:20:07;17.60;99.90
14739;DHT22;7461;52.440;13.540;2022-07-23T02:22:34;17.60;99.90
14739;DHT22;7461;52.440;13.540;2022-07-23T02:25:01;17.60;99.90
14739;DHT22;7461;52.440;13.540;2022-07-23T02:27:28;17.60;99.90
14739;DHT22;7461;52.440;13.540;2022-07-23T02:29:55;17.60;99.90
14739;DHT22;7461;52.440;13.540;2022-07-23T02:32:24;17.60;99.90
14739;DHT22;7461;52.440;13.540;2022-07-23T02:34:51;17.60;99.90
14739;DHT22;7461;52.440;13.540;2022-07-23T02:37:18;17.60;99.90
14739;DHT22;7461;52.440;13.540;2022-07-23T02:39:45;17.60;99.90
14739;DHT22;7461;52.440;13.540;2022-07-23T02:42:13;17.60;99.90
14739;DHT22;7461;52.440;13.540;2022-07-23T02:44:40;17.60;99.90
14739;DHT22;7461;52.440;13.540;2022-07-23T02:47:07;17.60;99.90
14739;DHT22;7461;52.440;13.540;2022-07-23T02:49:35;17.60;99.90
14739;DHT22;7461;52.440;13.540;2022-07-23T02:52:03;17.50;99.90
14739;DHT22;7461;52.440;13.540;2022-07-23T02:54:30;17.50;99.90
14739;DHT22;7461;52.440;13.540;2022-07-23T02:56:57;17.50;99.90
14739;DHT22;7461;52.440;13.540;2022-07-23T02:59:24;17.50;99.90
14739;DHT22;7461;52.440;13.540;2022-07-23T03:01:50;17.50;99.90
14739;DHT22;7461;52.440;13.540;2022-07-23T03:04:17;17.50;99.90
14739;DHT22;7461;52.440;13.540;2022-07-23T03:06:45;17.50;99.90
14739;DHT22;7461;52.440;13.540;2022-07-23T03:09:12;17.50;99.90
14739;DHT22;7461;52.440;13.540;2022-07-23T03:11:39;17.40;99.90
14739;DHT22;7461;52.440;13.540;2022-07-23T03:14:06;17.40;99.90
14739;DHT22;7461;52.440;13.540;2022-07-23T03:16:33;17.30;99.90
14739;DHT22;7461;52.440;13.540;2022-07-23T03:19:00;17.20;99.90
14739;DHT22;7461;52.440;13.540;2022-07-23T03:21:27;17.20;99.90
14739;DHT22;7461;52.440;13.540;2022-07-23T03:23:55;17.20;99.90
14739;DHT22;7461;52.440;13.540;2022-07-23T03:26:22;17.20;99.90
14739;DHT22;7461;52.440;13.540;2022-07-23T03:28:50;17.10;99.90
14739;DHT22;7461;52.440;13.540;2022-07-23T03:31:17;17.10;99.90
14739;DHT22;7461;52.440;13.540;2022-07-23T03:33:44;17.10;99.90
14739;DHT22;7461;52.440;13.540;2022-07-23T03:36:11;17.10;99.90
14739;DHT22;7461;52.440;13.540;2022-07-23T03:38:38;17.10;99.90
14739;DHT22;7461;52.440;13.540;2022-07-23T03:41:06;17.20;99.90
14739;DHT22;7461;52.440;13.540;2022-07-23T03:43:33;17.20;99.90
14739;DHT22;7461;52.440;13.540;2022-07-23T03:46:00;17.20;99.90
14739;DHT22;7461;52.440;13.540;2022-07-23T03:48:27;17.20;99.90
14739;DHT22;7461;52.440;13.540;2022-07-23T03:50:54;17.30;99.90
14739;DHT22;7461;52.440;13.540;2022-07-23T03:53:21;17.30;99.90
14739;DHT22;7461;52.440;13.540;2022-07-23T03:55:47;17.40;99.90
14739;DHT22;7461;52.440;13.540;2022-07-23T03:58:18;17.40;99.90
14739;DHT22;7461;52.440;13.540;2022-07-23T04:00:45;17.40;99.90
14739;DHT22;7461;52.440;13.540;2022-07-23T04:03:11;17.40;99.90
14739;DHT22;7461;52.440;13.540;2022-07-23T04:05:38;17.50;99.90
14739;DHT22;7461;52.440;13.540;2022-07-23T04:08:05;17.50;99.90
14739;DHT22;7461;52.440;13.540;2022-07-23T04:10:32;17.50;99.90
14739;DHT22;7461;52.440;13.540;2022-07-23T04:12:59;17.50;99.90
14739;DHT22;7461;52.440;13.540;2022-07-23T04:15:27;17.40;99.90
14739;DHT22;7461;52.440;13.540;2022-07-23T04:17:54;17.40;99.90
14739;DHT22;7461;52.440;13.540;2022-07-23T04:20:21;17.40;99.90
14739;DHT22;7461;52.440;13.540;2022-07-23T04:22:47;17.40;99.90
14739;DHT22;7461;52.440;13.540;2022-07-23T04:25:14;17.30;99.90
14739;DHT22;7461;52.440;13.540;2022-07-23T04:27:42;17.30;99.90
14739;DHT22;7461;52.440;13.540;2022-07-23T04:30:10;17.20;99.90
14739;DHT22;7461;52.440;13.540;2022-07-23T04:32:38;17.10;99.90
14739;DHT22;7461;52.440;13.540;2022-07-23T04:35:05;17.10;99.90
14739;DHT22;7461;52.440;13.540;2022-07-23T04:37:32;17.00;99.90
14739;DHT22;7461;52.440;13.540;2022-07-23T04:39:59;17.00;99.90
14739;DHT22;7461;52.440;13.540;2022-07-23T04:42:26;17.00;99.90
14739;DHT22;7461;52.440;13.540;2022-07-23T04:44:53;17.00;99.90
14739;DHT22;7461;52.440;13.540;2022-07-23T04:47:20;17.00;99.90
14739;DHT22;7461;52.440;13.540;2022-07-23T04:49:48;17.00;99.90
14739;DHT22;7461;52.440;13.540;2022-07-23T04:52:15;17.00;99.90
14739;DHT22;7461;52.440;13.540;2022-07-23T04:54:42;16.90;99.90
14739;DHT22;7461;52.440;13.540;2022-07-23T04:57:08;16.80;99.90
14739;DHT22;7461;52.440;13.540;2022-07-23T04:59:35;16.60;99.90
14739;DHT22;7461;52.440;13.540;2022-07-23T05:02:02;16.50;99.90
14739;DHT22;7461;52.440;13.540;2022-07-23T05:04:29;16.40;99.90
14739;DHT22;7461;52.440;13.540;2022-07-23T05:06:58;16.30;99.90
14739;DHT22;7461;52.440;13.540;2022-07-23T05:09:25;16.00;99.90
14739;DHT22;7461;52.440;13.540;2022-07-23T05:11:52;15.90;99.90
14739;DHT22;7461;52.440;13.540;2022-07-23T05:14:19;15.80;99.90
14739;DHT22;7461;52.440;13.540;2022-07-23T05:16:46;15.80;99.90
14739;DHT22;7461;52.440;13.540;2022-07-23T05:19:13;15.80;99.90
14739;DHT22;7461;52.440;13.540;2022-07-23T05:21:40;15.90;99.90
14739;DHT22;7461;52.440;13.540;2022-07-23T05:24:09;15.80;99.90
14739;DHT22;7461;52.440;13.540;2022-07-23T05:26:36;15.70;99.90
14739;DHT22;7461;52.440;13.540;2022-07-23T05:29:03;15.70;99.90
14739;DHT22;7461;52.440;13.540;2022-07-23T05:31:30;15.70;99.90
14739;DHT22;7461;52.440;13.540;2022-07-23T05:33:59;15.60;99.90
14739;DHT22;7461;52.440;13.540;2022-07-23T05:36:26;15.60;99.90
14739;DHT22;7461;52.440;13.540;2022-07-23T05:38:52;15.70;99.90
14739;DHT22;7461;52.440;13.540;2022-07-23T05:41:21;15.60;99.90
14739;DHT22;7461;52.440;13.540;2022-07-23T05:43:47;15.60;99.90
14739;DHT22;7461;52.440;13.540;2022-07-23T05:46:14;15.50;99.90
14739;DHT22;7461;52.440;13.540;2022-07-23T05:48:41;15.50;99.90
14739;DHT22;7461;52.440;13.540;2022-07-23T05:51:08;15.50;99.90
14739;DHT22;7461;52.440;13.540;2022-07-23T05:53:35;15.50;99.90
14739;DHT22;7461;52.440;13.540;2022-07-23T05:56:03;15.50;99.90
14739;DHT22;7461;52.440;13.540;2022-07-23T05:58:31;15.60;99.90
14739;DHT22;7461;52.440;13.540;2022-07-23T06:01:03;15.60;99.90
14739;DHT22;7461;52.440;13.540;2022-07-23T06:03:30;15.60;99.90
14739;DHT22;7461;52.440;13.540;2022-07-23T06:05:57;15.50;99.90
14739;DHT22;7461;52.440;13.540;2022-07-23T06:08:23;15.50;99.90
14739;DHT22;7461;52.440;13.540;2022-07-23T06:10:50;15.50;99.90
14739;DHT22;7461;52.440;13.540;2022-07-23T06:13:18;15.50;99.90
14739;DHT22;7461;52.440;13.540;2022-07-23T06:15:46;15.60;99.90
14739;DHT22;7461;52.440;13.540;2022-07-23T06:18:13;15.50;99.90
14739;DHT22;7461;52.440;13.540;2022-07-23T06:20:40;15.50;99.90
14739;DHT22;7461;52.440;13.540;2022-07-23T06:23:07;15.50;99.90
14739;DHT22;7461;52.440;13.540;2022-07-23T06:25:34;15.60;99.90
14739;DHT22;7461;52.440;13.540;2022-07-23T06:28:01;15.50;99.90
14739;DHT22;7461;52.440;13.540;2022-07-23T06:30:28;15.40;99.90
14739;DHT22;7461;52.440;13.540;2022-07-23T06:32:56;15.40;99.90
14739;DHT22;7461;52.440;13.540;2022-07-23T06:35:23;15.30;99.90
14739;DHT22;7461;52.440;13.540;2022-07-23T06:37:50;15.40;99.90
14739;DHT22;7461;52.440;13.540;2022-07-23T06:40:17;15.40;99.90
14739;DHT22;7461;52.440;13.540;2022-07-23T06:42:44;15.50;99.90
14739;DHT22;7461;52.440;13.540;2022-07-23T06:45:11;15.40;99.90
14739;DHT22;7461;52.440;13.540;2022-07-23T06:47:38;15.40;99.90
14739;DHT22;7461;52.440;13.540;2022-07-23T06:50:08;15.40;99.90
14739;DHT22;7461;52.440;13.540;2022-07-23T06:52:35;15.40;99.90
14739;DHT22;7461;52.440;13.540;2022-07-23T06:55:03;15.30;99.90
14739;DHT22;7461;52.440;13.540;2022-07-23T06:57:30;15.40;99.90
14739;DHT22;7461;52.440;13.540;2022-07-23T06:59:57;15.40;99.90
14739;DHT22;7461;52.440;13.540;2022-07-23T07:02:24;15.40;99.90
14739;DHT22;7461;52.440;13.540;2022-07-23T07:04:51;15.30;99.90
14739;DHT22;7461;52.440;13.540;2022-07-23T07:07:20;15.30;99.90
14739;DHT22;7461;52.440;13.540;2022-07-23T07:09:47;15.40;99.90
14739;DHT22;7461;52.440;13.540;2022-07-23T07:12:13;15.40;99.90
14739;DHT22;7461;52.440;13.540;2022-07-23T07:14:40;15.30;99.90
14739;DHT22;7461;52.440;13.540;2022-07-23T07:17:07;15.30;99.90
14739;DHT22;7461;52.440;13.540;2022-07-23T07:19:36;15.30;99.90
14739;DHT22;7461;52.440;13.540;2022-07-23T07:22:03;15.30;99.90
14739;DHT22;7461;52.440;13.540;2022-07-23T07:24:31;15.40;99.90
14739;DHT22;7461;52.440;13.540;2022-07-23T07:26:58;15.40;99.90
14739;DHT22;7461;52.440;13.540;2022-07-23T07:29:25;15.50;99.90
14739;DHT22;7461;52.440;13.540;2022-07-23T07:31:52;15.50;99.90
14739;DHT22;7461;52.440;13.540;2022-07-23T07:34:19;15.50;99.90
14739;DHT22;7461;52.440;13.540;2022-07-23T07:36:46;15.50;99.90
14739;DHT22;7461;52.440;13.540;2022-07-23T07:39:13;15.60;99.90
14739;DHT22;7461;52.440;13.540;2022-07-23T07:41:41;15.60;99.90
14739;DHT22;7461;52.440;13.540;2022-07-23T07:44:08;15.60;99.90
14739;DHT22;7461;52.440;13.540;2022-07-23T07:46:37;15.60;99.90
14739;DHT22;7461;52.440;13.540;2022-07-23T07:49:04;15.60;99.90
14739;DHT22;7461;52.440;13.540;2022-07-23T07:51:31;15.60;99.90
14739;DHT22;7461;52.440;13.540;2022-07-23T07:53:58;15.60;99.90
14739;DHT22;7461;52.440;13.540;2022-07-23T07:56:25;15.60;99.90
14739;DHT22;7461;52.440;13.540;2022-07-23T07:58:53;15.60;99.90
14739;DHT22;7461;52.440;13.540;2022-07-23T08:01:20;15.60;99.90
14739;DHT22;7461;52.440;13.540;2022-07-23T08:03:47;15.70;99.90
14739;DHT22;7461;52.440;13.540;2022-07-23T08:06:14;15.70;99.90
14739;DHT22;7461;52.440;13.540;2022-07-23T08:08:41;15.70;99.90
14739;DHT22;7461;52.440;13.540;2022-07-23T08:11:08;15.70;99.90
14739;DHT22;7461;52.440;13.540;2022-07-23T08:13:35;15.70;99.90
14739;DHT22;7461;52.440;13.540;2022-07-23T08:16:03;15.80;99.90
14739;DHT22;7461;52.440;13.540;2022-07-23T08:18:30;15.90;99.90
14739;DHT22;7461;52.440;13.540;2022-07-23T08:20:57;16.00;99.90
14739;DHT22;7461;52.440;13.540;2022-07-23T08:23:24;16.00;99.90
14739;DHT22;7461;52.440;13.540;2022-07-23T08:25:53;16.00;99.90
14739;DHT22;7461;52.440;13.540;2022-07-23T08:28:19;16.10;99.90
14739;DHT22;7461;52.440;13.540;2022-07-23T08:30:46;16.10;99.90
14739;DHT22;7461;52.440;13.540;2022-07-23T08:33:16;16.20;99.90
14739;DHT22;7461;52.440;13.540;2022-07-23T08:35:44;16.30;99.90
14739;DHT22;7461;52.440;13.540;2022-07-23T08:38:14;16.40;99.90
14739;DHT22;7461;52.440;13.540;2022-07-23T08:40:42;16.40;99.90
14739;DHT22;7461;52.440;13.540;2022-07-23T08:43:12;16.40;99.90
14739;DHT22;7461;52.440;13.540;2022-07-23T08:45:41;16.40;99.90
14739;DHT22;7461;52.440;13.540;2022-07-23T08:48:12;16.40;99.90
14739;DHT22;7461;52.440;13.540;2022-07-23T08:50:42;16.50;99.90
14739;DHT22;7461;52.440;13.540;2022-07-23T08:53:10;16.50;99.90
14739;DHT22;7461;52.440;13.540;2022-07-23T08:55:37;16.60;99.90
14739;DHT22;7461;52.440;13.540;2022-07-23T08:58:04;16.70;99.90
14739;DHT22;7461;52.440;13.540;2022-07-23T09:00:31;16.90;99.90
14739;DHT22;7461;52.440;13.540;2022-07-23T09:02:58;16.90;99.90
14739;DHT22;7461;52.440;13.540;2022-07-23T09:05:25;16.90;99.90
14739;DHT22;7461;52.440;13.540;2022-07-23T09:08:09;17.00;99.90
14739;DHT22;7461;52.440;13.540;2022-07-23T09:10:53;17.10;99.90
14739;DHT22;7461;52.440;13.540;2022-07-23T09:13:27;17.20;99.90
14739;DHT22;7461;52.440;13.540;2022-07-23T09:15:55;17.30;99.90
14739;DHT22;7461;52.440;13.540;2022-07-23T09:18:32;17.30;99.90
14739;DHT22;7461;52.440;13.540;2022-07-23T09:21:19;17.40;99.90
14739;DHT22;7461;52.440;13.540;2022-07-23T09:23:55;17.50;99.90
14739;DHT22;7461;52.440;13.540;2022-07-23T09:26:32;17.50;99.90
14739;DHT22;7461;52.440;13.540;2022-07-23T09:29:02;17.60;99.90
14739;DHT22;7461;52.440;13.540;2022-07-23T09:31:44;17.50;99.90
14739;DHT22;7461;52.440;13.540;2022-07-23T09:34:16;17.50;99.90
14739;DHT22;7461;52.440;13.540;2022-07-23T09:36:44;17.50;99.90
14739;DHT22;7461;52.440;13.540;2022-07-23T09:39:14;17.60;99.90
14739;DHT22;7461;52.440;13.540;2022-07-23T09:41:45;17.70;99.90
14739;DHT22;7461;52.440;13.540;2022-07-23T09:44:14;17.70;99.90
14739;DHT22;7461;52.440;13.540;2022-07-23T09:46:42;17.80;99.90
14739;DHT22;7461;52.440;13.540;2022-07-23T09:49:14;17.80;99.90
14739;DHT22;7461;52.440;13.540;2022-07-23T09:51:53;17.70;99.90
14739;DHT22;7461;52.440;13.540;2022-07-23T09:54:28;17.70;99.90
14739;DHT22;7461;52.440;13.540;2022-07-23T09:56:58;17.70;99.90
14739;DHT22;7461;52.440;13.540;2022-07-23T09:59:27;17.70;99.90
14739;DHT22;7461;52.440;13.540;2022-07-23T10:01:55;17.80;99.90
14739;DHT22;7461;52.440;13.540;2022-07-23T10:04:25;17.90;99.90
14739;DHT22;7461;52.440;13.540;2022-07-23T10:06:54;18.00;99.90
14739;DHT22;7461;52.440;13.540;2022-07-23T10:09:26;18.00;99.90
14739;DHT22;7461;52.440;13.540;2022-07-23T10:11:58;18.10;99.90
14739;DHT22;7461;52.440;13.540;2022-07-23T10:14:33;18.20;99.90
14739;DHT22;7461;52.440;13.540;2022-07-23T10:17:01;18.30;99.90
14739;DHT22;7461;52.440;13.540;2022-07-23T10:19:28;18.40;99.90
14739;DHT22;7461;52.440;13.540;2022-07-23T10:21:58;18.40;99.90
14739;DHT22;7461;52.440;13.540;2022-07-23T10:24:39;18.50;99.90
14739;DHT22;7461;52.440;13.540;2022-07-23T10:30:02;18.60;99.90
14739;DHT22;7461;52.440;13.540;2022-07-23T10:32:37;18.80;99.90
14739;DHT22;7461;52.440;13.540;2022-07-23T10:35:12;19.10;99.90
14739;DHT22;7461;52.440;13.540;2022-07-23T10:37:43;19.30;99.90
14739;DHT22;7461;52.440;13.540;2022-07-23T10:40:14;19.50;99.90
14739;DHT22;7461;52.440;13.540;2022-07-23T10:42:43;19.70;99.90
14739;DHT22;7461;52.440;13.540;2022-07-23T10:45:24;19.90;99.90
14739;DHT22;7461;52.440;13.540;2022-07-23T10:47:51;19.90;99.90
14739;DHT22;7461;52.440;13.540;2022-07-23T10:50:23;19.70;99.90
14739;DHT22;7461;52.440;13.540;2022-07-23T10:53:16;19.70;99.90
14739;DHT22;7461;52.440;13.540;2022-07-23T10:55:48;20.00;99.90
14739;DHT22;7461;52.440;13.540;2022-07-23T10:58:19;20.10;99.90
14739;DHT22;7461;52.440;13.540;2022-07-23T11:00:47;20.10;99.90
14739;DHT22;7461;52.440;13.540;2022-07-23T11:03:34;20.10;99.90
14739;DHT22;7461;52.440;13.540;2022-07-23T11:06:04;20.00;99.90
14739;DHT22;7461;52.440;13.540;2022-07-23T11:08:33;20.10;99.90
14739;DHT22;7461;52.440;13.540;2022-07-23T11:11:11;20.00;99.90
14739;DHT22;7461;52.440;13.540;2022-07-23T11:13:48;20.00;99.90
14739;DHT22;7461;52.440;13.540;2022-07-23T11:16:23;20.10;99.90
14739;DHT22;7461;52.440;13.540;2022-07-23T11:19:04;20.20;99.90
14739;DHT22;7461;52.440;13.540;2022-07-23T11:21:48;20.30;99.90
14739;DHT22;7461;52.440;13.540;2022-07-23T11:24:18;20.50;99.90
14739;DHT22;7461;52.440;13.540;2022-07-23T11:26:49;20.50;99.90
14739;DHT22;7461;52.440;13.540;2022-07-23T11:29:47;20.70;99.90
14739;DHT22;7461;52.440;13.540;2022-07-23T11:32:38;20.80;99.90
14739;DHT22;7461;52.440;13.540;2022-07-23T11:35:20;21.00;99.90
14739;DHT22;7461;52.440;13.540;2022-07-23T11:37:48;21.00;99.90
14739;DHT22;7461;52.440;13.540;2022-07-23T11:40:16;21.00;99.90
14739;DHT22;7461;52.440;13.540;2022-07-23T11:42:57;21.10;99.90
14739;DHT22;7461;52.440;13.540;2022-07-23T11:45:26;21.10;99.90
14739;DHT22;7461;52.440;13.540;2022-07-23T11:47:56;21.30;99.90
14739;DHT22;7461;52.440;13.540;2022-07-23T11:50:24;21.30;99.90
14739;DHT22;7461;52.440;13.540;2022-07-23T11:52:51;21.30;99.90
14739;DHT22;7461;52.440;13.540;2022-07-23T11:55:18;21.30;99.90
14739;DHT22;7461;52.440;13.540;2022-07-23T11:57:45;21.40;99.90
14739;DHT22;7461;52.440;13.540;2022-07-23T12:00:16;21.40;99.90
14739;DHT22;7461;52.440;13.540;2022-07-23T12:02:45;21.40;99.90
14739;DHT22;7461;52.440;13.540;2022-07-23T12:05:13;21.30;99.90
14739;DHT22;7461;52.440;13.540;2022-07-23T12:07:42;21.40;99.90
14739;DHT22;7461;52.440;13.540;2022-07-23T12:10:11;21.40;99.90
14739;DHT22;7461;52.440;13.540;2022-07-23T12:12:40;21.40;99.90
14739;DHT22;7461;52.440;13.540;2022-07-23T12:15:09;21.40;99.90
14739;DHT22;7461;52.440;13.540;2022-07-23T12:17:39;21.30;99.90
14739;DHT22;7461;52.440;13.540;2022-07-23T12:20:08;21.20;99.90
14739;DHT22;7461;52.440;13.540;2022-07-23T12:22:38;21.20;99.90
14739;DHT22;7461;52.440;13.540;2022-07-23T12:25:07;21.20;99.90
14739;DHT22;7461;52.440;13.540;2022-07-23T12:27:35;21.20;99.90
14739;DHT22;7461;52.440;13.540;2022-07-23T12:30:22;21.20;99.90
14739;DHT22;7461;52.440;13.540;2022-07-23T12:32:53;21.30;99.90
14739;DHT22;7461;52.440;13.540;2022-07-23T12:35:30;21.40;99.90
14739;DHT22;7461;52.440;13.540;2022-07-23T12:38:01;21.50;99.90
14739;DHT22;7461;52.440;13.540;2022-07-23T12:40:32;21.60;99.90
14739;DHT22;7461;52.440;13.540;2022-07-23T12:43:02;21.70;99.90
14739;DHT22;7461;52.440;13.540;2022-07-23T12:45:43;21.80;99.90
14739;DHT22;7461;52.440;13.540;2022-07-23T12:48:21;21.90;99.90
14739;DHT22;7461;52.440;13.540;2022-07-23T12:50:54;22.00;99.90
14739;DHT22;7461;52.440;13.540;2022-07-23T12:53:23;22.20;99.90
14739;DHT22;7461;52.440;13.540;2022-07-23T12:55:56;22.20;99.90
14739;DHT22;7461;52.440;13.540;2022-07-23T12:58:25;22.10;99.90
14739;DHT22;7461;52.440;13.540;2022-07-23T13:03:33;22.10;99.90
14739;DHT22;7461;52.440;13.540;2022-07-23T13:06:01;22.10;99.90
14739;DHT22;7461;52.440;13.540;2022-07-23T13:08:29;22.00;99.90
14739;DHT22;7461;52.440;13.540;2022-07-23T13:10:57;22.00;99.90
14739;DHT22;7461;52.440;13.540;2022-07-23T13:13:26;22.00;99.90
14739;DHT22;7461;52.440;13.540;2022-07-23T13:15:53;22.00;99.90
14739;DHT22;7461;52.440;13.540;2022-07-23T13:18:21;21.90;99.90
14739;DHT22;7461;52.440;13.540;2022-07-23T13:20:50;22.00;99.90
14739;DHT22;7461;52.440;13.540;2022-07-23T13:23:17;22.00;99.90
14739;DHT22;7461;52.440;13.540;2022-07-23T13:25:45;21.90;99.90
14739;DHT22;7461;52.440;13.540;2022-07-23T13:28:12;21.90;99.90
14739;DHT22;7461;52.440;13.540;2022-07-23T13:30:39;21.90;99.90
14739;DHT22;7461;52.440;13.540;2022-07-23T13:33:06;21.90;99.90
14739;DHT22;7461;52.440;13.540;2022-07-23T13:35:34;21.90;99.90
14739;DHT22;7461;52.440;13.540;2022-07-23T13:38:02;21.90;99.90
14739;DHT22;7461;52.440;13.540;2022-07-23T13:40:29;21.90;99.90
14739;DHT22;7461;52.440;13.540;2022-07-23T13:42:56;21.90;99.90
14739;DHT22;7461;52.440;13.540;2022-07-23T13:45:23;21.90;99.90
14739;DHT22;7461;52.440;13.540;2022-07-23T13:47:50;22.00;99.90
14739;DHT22;7461;52.440;13.540;2022-07-23T13:50:17;22.10;99.90
14739;DHT22;7461;52.440;13.540;2022-07-23T13:52:44;22.20;99.90
14739;DHT22;7461;52.440;13.540;2022-07-23T13:55:13;22.30;99.90
14739;DHT22;7461;52.440;13.540;2022-07-23T13:57:39;22.30;99.90
14739;DHT22;7461;52.440;13.540;2022-07-23T14:00:08;22.40;99.90
14739;DHT22;7461;52.440;13.540;2022-07-23T14:02:37;22.60;99.90
14739;DHT22;7461;52.440;13.540;2022-07-23T14:05:05;22.70;99.90
14739;DHT22;7461;52.440;13.540;2022-07-23T14:07:33;22.80;99.90
14739;DHT22;7461;52.440;13.540;2022-07-23T14:09:59;22.90;99.90
14739;DHT22;7461;52.440;13.540;2022-07-23T14:12:28;23.10;99.90
14739;DHT22;7461;52.440;13.540;2022-07-23T14:14:55;23.00;99.90
14739;DHT22;7461;52.440;13.540;2022-07-23T14:17:21;23.00;99.90
14739;DHT22;7461;52.440;13.540;2022-07-23T14:19:49;23.10;99.90
14739;DHT22;7461;52.440;13.540;2022-07-23T14:22:16;23.00;99.90
14739;DHT22;7461;52.440;13.540;2022-07-23T14:24:43;23.00;99.90
14739;DHT22;7461;52.440;13.540;2022-07-23T14:27:10;23.10;99.90
14739;DHT22;7461;52.440;13.540;2022-07-23T14:29:38;23.20;99.90
14739;DHT22;7461;52.440;13.540;2022-07-23T14:32:05;23.30;99.90
14739;DHT22;7461;52.440;13.540;2022-07-23T14:34:32;23.30;99.90
14739;DHT22;7461;52.440;13.540;2022-07-23T14:36:59;23.30;99.90
14739;DHT22;7461;52.440;13.540;2022-07-23T14:39:26;23.30;99.90
14739;DHT22;7461;52.440;13.540;2022-07-23T14:41:53;23.30;99.90
14739;DHT22;7461;52.440;13.540;2022-07-23T14:44:20;23.30;99.90
14739;DHT22;7461;52.440;13.540;2022-07-23T14:46:49;23.20;99.90
14739;DHT22;7461;52.440;13.540;2022-07-23T14:49:15;23.20;99.90
14739;DHT22;7461;52.440;13.540;2022-07-23T14:51:42;23.20;99.90
14739;DHT22;7461;52.440;13.540;2022-07-23T14:54:11;23.20;99.90
14739;DHT22;7461;52.440;13.540;2022-07-23T14:56:39;23.30;99.90
14739;DHT22;7461;52.440;13.540;2022-07-23T14:59:06;23.30;99.90
14739;DHT22;7461;52.440;13.540;2022-07-23T15:01:33;23.30;99.90
14739;DHT22;7461;52.440;13.540;2022-07-23T15:04:02;23.30;99.90
14739;DHT22;7461;52.440;13.540;2022-07-23T15:06:29;23.20;99.90
14739;DHT22;7461;52.440;13.540;2022-07-23T15:08:56;23.30;99.90
14739;DHT22;7461;52.440;13.540;2022-07-23T15:11:23;23.30;99.90
14739;DHT22;7461;52.440;13.540;2022-07-23T15:13:50;23.30;99.90
14739;DHT22;7461;52.440;13.540;2022-07-23T15:16:17;23.20;99.90
14739;DHT22;7461;52.440;13.540;2022-07-23T15:18:44;23.10;99.90
14739;DHT22;7461;52.440;13.540;2022-07-23T15:21:13;23.20;99.90
14739;DHT22;7461;52.440;13.540;2022-07-23T15:23:40;23.30;99.90
14739;DHT22;7461;52.440;13.540;2022-07-23T15:26:07;23.30;99.90
14739;DHT22;7461;52.440;13.540;2022-07-23T15:28:35;23.40;99.90
14739;DHT22;7461;52.440;13.540;2022-07-23T15:31:02;23.50;99.90
14739;DHT22;7461;52.440;13.540;2022-07-23T15:33:29;23.50;99.90
14739;DHT22;7461;52.440;13.540;2022-07-23T15:35:56;23.60;99.90
14739;DHT22;7461;52.440;13.540;2022-07-23T15:38:26;23.60;99.90
14739;DHT22;7461;52.440;13.540;2022-07-23T15:40:54;23.60;99.90
14739;DHT22;7461;52.440;13.540;2022-07-23T15:43:21;23.60;99.90